createdAt,value
2018-09-09T00:02:13.607Z,54.50
2018-09-09T00:04:42.126Z,54.60
2018-09-09T00:07:10.413Z,54.50
2018-09-09T00:09:44.214Z,54.50
2018-09-09T00:12:12.475Z,54.60
2018-09-09T00:14:40.821Z,54.60
2018-09-09T00:17:09.445Z,54.60
2018-09-09T00:19:37.759Z,54.50
2018-09-09T00:22:06.420Z,54.60
2018-09-09T00:24:34.690Z,54.60
2018-09-09T00:27:03.006Z,55.30
2018-09-09T00:29:32.466Z,54.60
2018-09-09T00:32:01.225Z,54.60
2018-09-09T00:34:30.097Z,54.60
2018-09-09T00:36:59.466Z,54.60
2018-09-09T00:39:27.871Z,54.60
2018-09-09T00:41:56.740Z,54.50
2018-09-09T00:44:25.318Z,54.50
2018-09-09T00:46:54.026Z,54.60
2018-09-09T00:49:27.798Z,54.50
2018-09-09T00:52:01.528Z,54.60
2018-09-09T00:54:29.846Z,54.50
2018-09-09T00:56:58.562Z,54.50
2018-09-09T00:59:26.878Z,54.60
2018-09-09T01:01:55.179Z,54.60
2018-09-09T01:04:23.452Z,54.50
2018-09-09T01:06:51.783Z,54.60
2018-09-09T01:09:20.087Z,54.50
2018-09-09T01:11:48.411Z,54.60
2018-09-09T01:14:16.726Z,54.50
2018-09-09T01:16:45.054Z,54.40
2018-09-09T01:19:13.334Z,54.50
2018-09-09T01:21:41.654Z,54.50
2018-09-09T01:24:09.931Z,54.60
2018-09-09T01:26:39.471Z,55.20
2018-09-09T01:29:07.766Z,54.60
2018-09-09T01:31:36.122Z,54.60
2018-09-09T01:34:04.498Z,54.60
2018-09-09T01:36:32.790Z,54.60
2018-09-09T01:39:01.082Z,54.60
2018-09-09T01:41:29.394Z,54.60
2018-09-09T01:43:57.668Z,54.60
2018-09-09T01:46:26.003Z,54.70
2018-09-09T01:48:54.306Z,54.70
2018-09-09T01:51:22.586Z,54.70
2018-09-09T01:53:50.940Z,54.70
2018-09-09T01:56:19.237Z,54.70
2018-09-09T01:58:47.558Z,54.80
2018-09-09T02:01:15.851Z,54.70
2018-09-09T02:03:44.166Z,54.70
2018-09-09T02:06:12.443Z,54.80
2018-09-09T02:08:40.759Z,54.80
2018-09-09T02:11:09.056Z,54.80
2018-09-09T02:13:37.339Z,54.80
2018-09-09T02:16:05.677Z,54.80
2018-09-09T02:18:33.942Z,54.90
2018-09-09T02:21:02.286Z,54.90
2018-09-09T02:23:30.597Z,55.00
2018-09-09T02:25:58.937Z,54.90
2018-09-09T02:28:27.170Z,54.90
2018-09-09T02:30:55.502Z,55.00
2018-09-09T02:33:23.810Z,54.90
2018-09-09T02:35:52.106Z,55.00
2018-09-09T02:38:20.623Z,55.00
2018-09-09T02:40:48.892Z,55.00
2018-09-09T02:43:17.219Z,55.00
2018-09-09T02:45:45.521Z,55.00
2018-09-09T02:48:13.798Z,55.00
2018-09-09T02:50:42.081Z,54.80
2018-09-09T02:53:10.398Z,54.90
2018-09-09T02:55:45.575Z,54.90
2018-09-09T02:58:15.366Z,54.90
2018-09-09T03:00:43.718Z,55.00
2018-09-09T03:03:12.153Z,54.90
2018-09-09T03:05:40.825Z,55.60
2018-09-09T03:08:09.318Z,55.00
2018-09-09T03:10:38.103Z,55.00
2018-09-09T03:13:06.414Z,55.00
2018-09-09T03:15:34.962Z,54.90
2018-09-09T03:18:03.562Z,55.00
2018-09-09T03:20:31.842Z,54.90
2018-09-09T03:23:00.191Z,55.00
2018-09-09T03:25:28.490Z,55.00
2018-09-09T03:27:56.811Z,54.90
2018-09-09T03:30:25.106Z,55.00
2018-09-09T03:32:53.455Z,55.00
2018-09-09T03:35:21.738Z,55.00
2018-09-09T03:37:50.029Z,55.00
2018-09-09T03:40:18.298Z,55.00
2018-09-09T03:42:46.630Z,55.40
2018-09-09T03:45:14.935Z,55.10
2018-09-09T03:47:43.258Z,55.00
2018-09-09T03:50:11.563Z,55.00
2018-09-09T03:52:39.882Z,55.00
2018-09-09T03:55:08.176Z,55.00
2018-09-09T03:57:36.473Z,55.10
2018-09-09T04:00:05.165Z,54.90
2018-09-09T04:02:33.466Z,55.10
2018-09-09T04:05:02.454Z,55.00
2018-09-09T04:07:30.778Z,55.00
2018-09-09T04:09:59.133Z,55.20
2018-09-09T04:12:27.389Z,54.90
2018-09-09T04:14:55.701Z,55.40
2018-09-09T04:17:23.995Z,54.90
2018-09-09T04:19:52.298Z,55.00
2018-09-09T04:22:20.569Z,55.00
2018-09-09T04:24:48.874Z,55.00
2018-09-09T04:27:17.149Z,54.80
2018-09-09T04:29:45.454Z,55.00
2018-09-09T04:32:13.733Z,54.80
2018-09-09T04:34:42.088Z,54.90
2018-09-09T04:37:10.370Z,54.90
2018-09-09T04:39:38.658Z,55.00
2018-09-09T04:42:07.046Z,54.90
2018-09-09T04:44:35.329Z,54.90
2018-09-09T04:47:03.616Z,54.80
2018-09-09T04:49:31.906Z,54.80
2018-09-09T04:52:00.202Z,55.00
2018-09-09T04:54:28.654Z,55.00
2018-09-09T04:56:56.938Z,54.90
2018-09-09T04:59:25.244Z,54.90
2018-09-09T05:01:53.542Z,54.80
2018-09-09T05:04:21.920Z,55.00
2018-09-09T05:06:50.197Z,54.90
2018-09-09T05:09:18.492Z,54.80
2018-09-09T05:11:46.842Z,54.80
2018-09-09T05:14:15.127Z,54.90
2018-09-09T05:16:43.426Z,54.90
2018-09-09T05:19:11.734Z,54.80
2018-09-09T05:21:40.062Z,54.80
2018-09-09T05:24:08.416Z,54.90
2018-09-09T05:26:36.719Z,54.90
2018-09-09T05:29:05.172Z,55.00
2018-09-09T05:31:33.470Z,54.90
2018-09-09T05:34:01.752Z,54.90
2018-09-09T05:36:30.072Z,55.00
2018-09-09T05:38:58.345Z,55.10
2018-09-09T05:41:26.670Z,55.10
2018-09-09T05:43:55.159Z,55.10
2018-09-09T05:46:23.447Z,55.20
2018-09-09T05:48:51.755Z,55.10
2018-09-09T05:51:20.054Z,55.20
2018-09-09T05:53:48.346Z,55.10
2018-09-09T05:56:16.745Z,55.10
2018-09-09T05:58:45.026Z,55.20
2018-09-09T06:01:13.376Z,55.20
2018-09-09T06:03:41.678Z,55.20
2018-09-09T06:06:09.958Z,55.20
2018-09-09T06:08:38.272Z,55.20
2018-09-09T06:11:06.585Z,55.20
2018-09-09T06:13:34.867Z,55.20
2018-09-09T06:16:03.203Z,55.20
2018-09-09T06:18:31.494Z,55.20
2018-09-09T06:20:59.854Z,55.20
2018-09-09T06:23:28.130Z,55.20
2018-09-09T06:25:56.572Z,55.20
2018-09-09T06:28:24.990Z,55.20
2018-09-09T06:30:53.176Z,55.20
2018-09-09T06:33:21.462Z,55.10
2018-09-09T06:35:49.737Z,55.00
2018-09-09T06:38:18.045Z,55.10
2018-09-09T06:40:46.381Z,55.10
2018-09-09T06:43:14.674Z,55.10
2018-09-09T06:45:43.574Z,55.10
2018-09-09T06:48:12.003Z,55.20
2018-09-09T06:50:41.091Z,55.10
2018-09-09T06:53:09.423Z,55.10
2018-09-09T06:55:37.756Z,55.10
2018-09-09T06:58:06.445Z,55.10
2018-09-09T07:00:34.733Z,55.10
2018-09-09T07:03:03.039Z,55.00
2018-09-09T07:05:31.322Z,55.00
2018-09-09T07:07:59.657Z,55.10
2018-09-09T07:10:27.951Z,55.10
2018-09-09T07:12:56.207Z,55.30
2018-09-09T07:15:24.504Z,55.20
2018-09-09T07:17:52.796Z,55.30
2018-09-09T07:20:21.129Z,55.30
2018-09-09T07:22:49.667Z,55.90
2018-09-09T07:25:17.982Z,55.60
2018-09-09T07:27:46.254Z,57.60
2018-09-09T07:30:14.565Z,58.60
2018-09-09T07:32:42.855Z,59.10
2018-09-09T07:35:11.149Z,58.50
2018-09-09T07:37:39.455Z,58.00
2018-09-09T07:40:07.798Z,57.50
2018-09-09T07:42:36.131Z,57.00
2018-09-09T07:45:04.453Z,56.90
2018-09-09T07:47:32.790Z,56.90
2018-09-09T07:50:01.101Z,56.60
2018-09-09T07:52:29.408Z,56.40
2018-09-09T07:54:57.732Z,56.20
2018-09-09T07:57:26.067Z,56.20
2018-09-09T07:59:54.399Z,56.00
2018-09-09T08:02:22.699Z,56.00
2018-09-09T08:04:50.980Z,55.80
2018-09-09T08:07:19.302Z,55.60
2018-09-09T08:09:47.595Z,55.60
2018-09-09T08:12:15.905Z,55.80
2018-09-09T08:14:44.250Z,55.60
2018-09-09T08:17:12.514Z,55.30
2018-09-09T08:19:40.838Z,55.50
2018-09-09T08:22:09.169Z,55.40
2018-09-09T08:24:37.498Z,56.10
2018-09-09T08:27:05.905Z,55.80
2018-09-09T08:29:34.174Z,56.60
2018-09-09T08:32:02.470Z,56.40
2018-09-09T08:34:30.751Z,55.50
2018-09-09T08:36:59.067Z,56.20
2018-09-09T08:39:27.411Z,56.50
2018-09-09T08:41:55.713Z,55.50
2018-09-09T08:44:23.998Z,55.70
2018-09-09T08:46:52.313Z,55.20
2018-09-09T08:49:20.610Z,54.90
2018-09-09T08:51:48.974Z,54.70
2018-09-09T08:54:18.355Z,54.70
2018-09-09T08:56:47.514Z,54.60
2018-09-09T08:59:15.826Z,54.30
2018-09-09T09:01:44.114Z,54.20
2018-09-09T09:04:12.436Z,54.00
2018-09-09T09:06:40.754Z,54.30
2018-09-09T09:09:10.270Z,54.50
2018-09-09T09:11:38.583Z,53.90
2018-09-09T09:14:06.859Z,54.10
2018-09-09T09:16:35.187Z,53.80
2018-09-09T09:19:03.820Z,53.50
2018-09-09T09:21:32.152Z,53.40
2018-09-09T09:24:00.509Z,53.50
2018-09-09T09:26:28.778Z,54.90
2018-09-09T09:28:57.087Z,53.80
2018-09-09T09:31:25.367Z,53.70
2018-09-09T09:33:53.674Z,53.30
2018-09-09T09:36:21.978Z,53.10
2018-09-09T09:38:50.274Z,53.30
2018-09-09T09:41:18.574Z,53.20
2018-09-09T09:43:46.922Z,53.00
2018-09-09T09:46:15.238Z,53.00
2018-09-09T09:48:43.540Z,53.00
2018-09-09T09:51:11.846Z,53.70
2018-09-09T09:53:40.221Z,53.60
2018-09-09T09:56:08.567Z,53.80
2018-09-09T09:58:36.924Z,53.60
2018-09-09T10:01:05.270Z,53.90
2018-09-09T10:03:33.640Z,53.80
2018-09-09T10:06:01.929Z,53.70
2018-09-09T10:08:30.250Z,52.80
2018-09-09T10:10:58.610Z,53.00
2018-09-09T10:13:26.999Z,52.90
2018-09-09T10:15:55.353Z,53.00
2018-09-09T10:18:23.638Z,53.70
2018-09-09T10:20:51.931Z,52.70
2018-09-09T10:23:20.255Z,51.30
2018-09-09T10:25:48.639Z,51.70
2018-09-09T10:28:16.938Z,51.80
2018-09-09T10:30:45.305Z,51.60
2018-09-09T10:33:13.680Z,51.30
2018-09-09T10:35:41.989Z,50.70
2018-09-09T10:38:10.349Z,50.50
2018-09-09T10:40:38.631Z,49.60
2018-09-09T10:43:06.935Z,50.20
2018-09-09T10:45:35.266Z,50.50
2018-09-09T10:48:03.585Z,49.70
2018-09-09T10:50:31.914Z,49.20
2018-09-09T10:53:00.229Z,49.30
2018-09-09T10:55:28.469Z,49.20
2018-09-09T10:57:56.762Z,49.40
2018-09-09T11:00:25.290Z,48.70
2018-09-09T11:02:53.650Z,47.70
2018-09-09T11:05:21.922Z,47.70
2018-09-09T11:07:50.877Z,48.30
2018-09-09T11:10:19.170Z,46.90
2018-09-09T11:12:47.553Z,47.00
2018-09-09T11:15:15.862Z,46.00
2018-09-09T11:17:44.187Z,46.20
2018-09-09T11:20:12.512Z,46.60
2018-09-09T11:22:40.853Z,45.10
2018-09-09T11:25:09.167Z,46.50
2018-09-09T11:27:37.489Z,46.80
2018-09-09T11:30:05.858Z,46.80
2018-09-09T11:32:34.160Z,47.10
2018-09-09T11:35:02.462Z,46.30
2018-09-09T11:37:30.749Z,47.40
2018-09-09T11:39:59.094Z,48.10
2018-09-09T11:42:27.406Z,47.10
2018-09-09T11:44:55.699Z,47.30
2018-09-09T11:47:24.003Z,47.20
2018-09-09T11:49:52.315Z,47.30
2018-09-09T11:52:20.654Z,47.20
2018-09-09T11:54:48.967Z,47.50
2018-09-09T11:57:17.814Z,47.40
2018-09-09T11:59:46.122Z,47.50
2018-09-09T12:02:14.471Z,47.60
2018-09-09T12:04:42.869Z,47.20
2018-09-09T12:07:11.168Z,46.90
2018-09-09T12:09:39.454Z,47.50
2018-09-09T12:12:07.758Z,46.10
2018-09-09T12:14:36.035Z,46.80
2018-09-09T12:17:04.539Z,47.20
2018-09-09T12:19:32.849Z,46.00
2018-09-09T12:22:01.145Z,47.40
2018-09-09T12:24:29.462Z,46.50
2018-09-09T12:26:58.205Z,47.80
2018-09-09T12:29:26.535Z,47.20
2018-09-09T12:31:54.836Z,45.90
2018-09-09T12:34:23.133Z,43.80
2018-09-09T12:36:51.417Z,47.80
2018-09-09T12:39:19.768Z,47.60
2018-09-09T12:41:48.098Z,47.00
2018-09-09T12:44:21.878Z,47.40
2018-09-09T12:46:55.577Z,47.40
2018-09-09T12:49:23.914Z,47.60
2018-09-09T12:51:52.254Z,47.40
2018-09-09T12:54:20.571Z,47.10
2018-09-09T12:56:48.942Z,47.50
2018-09-09T12:59:17.289Z,46.40
2018-09-09T13:01:45.599Z,46.80
2018-09-09T13:04:13.910Z,46.70
2018-09-09T13:06:42.226Z,47.30
2018-09-09T13:09:10.841Z,47.00
2018-09-09T13:11:39.178Z,47.50
2018-09-09T13:14:07.458Z,46.00
2018-09-09T13:16:35.757Z,47.00
2018-09-09T13:19:04.120Z,47.20
2018-09-09T13:21:32.426Z,46.90
2018-09-09T13:24:00.878Z,47.40
2018-09-09T13:26:29.177Z,47.50
2018-09-09T13:28:57.474Z,46.30
2018-09-09T13:31:25.802Z,45.20
2018-09-09T13:33:54.123Z,46.10
2018-09-09T13:36:22.445Z,46.80
2018-09-09T13:38:50.774Z,46.70
2018-09-09T13:41:19.057Z,47.70
2018-09-09T13:43:47.399Z,46.70
2018-09-09T13:46:15.691Z,47.20
2018-09-09T13:48:44.017Z,47.70
2018-09-09T13:51:12.368Z,47.70
2018-09-09T13:53:40.669Z,44.90
2018-09-09T13:56:08.979Z,47.70
2018-09-09T13:58:37.318Z,47.10
2018-09-09T14:01:05.691Z,47.00
2018-09-09T14:03:33.971Z,46.00
2018-09-09T14:06:02.345Z,47.50
2018-09-09T14:08:30.646Z,47.20
2018-09-09T14:10:58.935Z,47.80
2018-09-09T14:13:27.275Z,46.80
2018-09-09T14:15:55.546Z,46.30
2018-09-09T14:18:23.868Z,46.50
2018-09-09T14:20:52.711Z,46.70
2018-09-09T14:23:21.007Z,45.20
2018-09-09T14:25:49.307Z,47.40
2018-09-09T14:28:17.619Z,44.10
2018-09-09T14:30:45.923Z,47.60
2018-09-09T14:33:14.207Z,47.70
2018-09-09T14:35:42.502Z,47.90
2018-09-09T14:38:10.767Z,43.10
2018-09-09T14:40:39.075Z,47.40
2018-09-09T14:43:08.358Z,47.80
2018-09-09T14:45:36.783Z,47.60
2018-09-09T14:48:05.146Z,48.00
2018-09-09T14:50:33.454Z,46.90
2018-09-09T14:53:01.841Z,45.50
2018-09-09T14:55:30.233Z,48.00
2018-09-09T14:57:58.546Z,44.30
2018-09-09T15:00:26.932Z,46.40
2018-09-09T15:02:55.219Z,48.00
2018-09-09T15:05:23.559Z,48.00
2018-09-09T15:07:51.906Z,47.80
2018-09-09T15:10:20.246Z,44.20
2018-09-09T15:12:48.546Z,47.10
2018-09-09T15:15:17.100Z,45.80
2018-09-09T15:17:45.438Z,47.00
2018-09-09T15:20:13.733Z,46.70
2018-09-09T15:22:42.011Z,46.70
2018-09-09T15:25:11.218Z,48.00
2018-09-09T15:27:39.737Z,47.60
2018-09-09T15:30:08.075Z,48.10
2018-09-09T15:32:36.361Z,47.00
2018-09-09T15:35:04.903Z,44.60
2018-09-09T15:37:33.194Z,47.70
2018-09-09T15:40:01.705Z,45.60
2018-09-09T15:42:29.903Z,46.60
2018-09-09T15:44:58.226Z,45.30
2018-09-09T15:47:27.258Z,43.20
2018-09-09T15:49:55.726Z,47.30
2018-09-09T15:52:24.139Z,48.00
2018-09-09T15:54:52.347Z,45.00
2018-09-09T15:57:20.674Z,44.60
2018-09-09T15:59:48.978Z,44.40
2018-09-09T16:02:17.257Z,47.50
2018-09-09T16:04:45.574Z,46.20
2018-09-09T16:07:13.941Z,43.70
2018-09-09T16:09:42.194Z,46.60
2018-09-09T16:14:45.231Z,46.30
2018-09-09T16:17:13.574Z,47.50
2018-09-09T16:19:41.967Z,46.90
2018-09-09T16:22:10.302Z,47.10
2018-09-09T16:24:38.638Z,47.10
2018-09-09T16:27:06.975Z,46.10
2018-09-09T16:29:35.252Z,44.60
2018-09-09T16:32:03.589Z,46.00
2018-09-09T16:34:31.908Z,46.00
2018-09-09T16:37:00.194Z,46.30
2018-09-09T16:39:28.471Z,46.70
2018-09-09T16:41:56.819Z,47.00
2018-09-09T16:44:25.111Z,45.30
2018-09-09T16:46:53.636Z,45.30
2018-09-09T16:49:21.923Z,45.60
2018-09-09T16:51:50.406Z,47.10
2018-09-09T16:54:18.714Z,47.80
2018-09-09T16:56:47.378Z,44.80
2018-09-09T16:59:15.687Z,47.60
2018-09-09T17:01:43.981Z,47.60
2018-09-09T17:04:12.259Z,48.20
2018-09-09T17:06:40.639Z,47.30
2018-09-09T17:09:10.555Z,47.50
2018-09-09T17:11:39.345Z,46.70
2018-09-09T17:14:08.303Z,48.80
2018-09-09T17:16:36.614Z,48.10
2018-09-09T17:19:04.928Z,48.20
2018-09-09T17:21:33.234Z,48.30
2018-09-09T17:24:01.544Z,47.50
2018-09-09T17:26:29.847Z,49.10
2018-09-09T17:28:58.164Z,49.50
2018-09-09T17:31:26.455Z,49.10
2018-09-09T17:33:54.757Z,49.70
2018-09-09T17:36:23.028Z,49.60
2018-09-09T17:38:51.318Z,49.80
2018-09-09T17:41:19.911Z,50.00
2018-09-09T17:43:48.228Z,50.40
2018-09-09T17:46:16.622Z,49.30
2018-09-09T17:48:44.896Z,50.60
2018-09-09T17:51:13.186Z,50.70
2018-09-09T17:53:41.498Z,50.50
2018-09-09T17:56:09.826Z,51.30
2018-09-09T17:58:38.126Z,50.70
2018-09-09T18:01:06.387Z,51.40
2018-09-09T18:03:34.666Z,50.90
2018-09-09T18:06:02.969Z,51.10
2018-09-09T18:08:31.277Z,51.30
2018-09-09T18:10:59.589Z,51.30
2018-09-09T18:13:27.878Z,51.40
2018-09-09T18:15:56.236Z,51.40
2018-09-09T18:18:24.517Z,51.50
2018-09-09T18:20:52.911Z,51.50
2018-09-09T18:23:21.195Z,51.50
2018-09-09T18:25:49.530Z,51.70
2018-09-09T18:28:17.927Z,51.70
2018-09-09T18:30:46.217Z,51.80
2018-09-09T18:33:14.558Z,51.90
2018-09-09T18:35:43.049Z,51.90
2018-09-09T18:38:11.342Z,52.00
2018-09-09T18:40:39.618Z,52.10
2018-09-09T18:43:07.982Z,52.10
2018-09-09T18:45:36.304Z,52.20
2018-09-09T18:48:04.778Z,52.20
2018-09-09T18:50:33.070Z,52.20
2018-09-09T18:53:01.390Z,52.30
2018-09-09T18:55:29.697Z,52.30
2018-09-09T18:57:57.988Z,52.40
2018-09-09T19:00:26.326Z,52.40
2018-09-09T19:02:54.634Z,52.60
2018-09-09T19:05:22.944Z,52.60
2018-09-09T19:07:51.228Z,52.70
2018-09-09T19:10:20.022Z,52.80
2018-09-09T19:12:48.382Z,52.80
2018-09-09T19:15:16.751Z,52.90
2018-09-09T19:17:45.226Z,52.90
2018-09-09T19:20:13.550Z,53.00
2018-09-09T19:22:41.874Z,53.00
2018-09-09T19:25:10.199Z,53.10
2018-09-09T19:27:38.536Z,53.10
2018-09-09T19:30:06.923Z,53.10
2018-09-09T19:32:35.234Z,53.20
2018-09-09T19:35:03.610Z,53.10
2018-09-09T19:37:31.887Z,53.20
2018-09-09T19:40:00.194Z,53.30
2018-09-09T19:42:28.506Z,53.30
2018-09-09T19:44:56.818Z,53.30
2018-09-09T19:47:25.114Z,53.40
2018-09-09T19:49:53.428Z,53.30
2018-09-09T19:52:21.967Z,53.30
2018-09-09T19:54:50.298Z,53.30
2018-09-09T19:57:18.638Z,53.20
2018-09-09T19:59:46.970Z,53.20
2018-09-09T20:02:15.276Z,52.60
2018-09-09T20:04:43.626Z,53.30
2018-09-09T20:07:11.890Z,53.30
2018-09-09T20:09:40.214Z,53.20
2018-09-09T20:12:08.517Z,53.20
2018-09-09T20:14:36.878Z,53.30
2018-09-09T20:17:05.396Z,53.30
2018-09-09T20:19:33.828Z,53.40
2018-09-09T20:22:02.256Z,53.50
2018-09-09T20:24:30.537Z,53.40
2018-09-09T20:26:58.982Z,53.50
2018-09-09T20:29:27.277Z,53.50
2018-09-09T20:31:55.849Z,53.50
2018-09-09T20:34:24.177Z,53.60
2018-09-09T20:36:52.473Z,53.50
2018-09-09T20:39:21.778Z,53.60
2018-09-09T20:41:50.088Z,53.60
2018-09-09T20:44:18.386Z,53.60
2018-09-09T20:46:46.697Z,53.60
2018-09-09T20:49:15.010Z,53.70
2018-09-09T20:51:43.415Z,53.70
2018-09-09T20:54:11.758Z,53.80
2018-09-09T20:56:40.042Z,53.80
2018-09-09T20:59:08.407Z,53.90
2018-09-09T21:01:36.898Z,53.90
2018-09-09T21:04:05.294Z,53.90
2018-09-09T21:06:33.676Z,53.90
2018-09-09T21:09:01.943Z,53.90
2018-09-09T21:11:30.258Z,54.00
2018-09-09T21:13:58.554Z,54.00
2018-09-09T21:16:26.876Z,53.90
2018-09-09T21:18:55.206Z,54.10
2018-09-09T21:21:23.545Z,54.10
2018-09-09T21:23:51.852Z,54.10
2018-09-09T21:26:20.168Z,54.10
2018-09-09T21:28:48.463Z,54.10
2018-09-09T21:31:16.767Z,54.10
2018-09-09T21:33:45.051Z,54.10
2018-09-09T21:36:13.307Z,54.20
2018-09-09T21:38:41.607Z,54.20
2018-09-09T21:41:09.870Z,54.20
2018-09-09T21:43:38.186Z,54.20
2018-09-09T21:46:06.501Z,54.20
2018-09-09T21:48:34.816Z,54.20
2018-09-09T21:51:03.098Z,54.20
2018-09-09T21:53:31.409Z,54.20
2018-09-09T21:55:59.718Z,54.20
2018-09-09T21:58:27.992Z,54.30
2018-09-09T22:01:01.627Z,54.20
2018-09-09T22:03:29.931Z,54.20
2018-09-09T22:05:58.312Z,54.20
2018-09-09T22:08:26.982Z,54.20
2018-09-09T22:10:55.483Z,54.30
2018-09-09T22:13:23.754Z,54.30
2018-09-09T22:15:52.302Z,54.30
2018-09-09T22:18:20.586Z,54.20
2018-09-09T22:20:48.975Z,54.30
2018-09-09T22:23:17.266Z,54.40
2018-09-09T22:25:45.559Z,54.30
2018-09-09T22:28:13.841Z,54.30
2018-09-09T22:30:42.188Z,54.40
2018-09-09T22:33:10.510Z,54.40
2018-09-09T22:35:38.798Z,54.40
2018-09-09T22:38:07.189Z,54.50
2018-09-09T22:40:35.497Z,54.50
2018-09-09T22:43:04.181Z,54.50
2018-09-09T22:45:32.565Z,54.40
2018-09-09T22:48:00.857Z,54.40
2018-09-09T22:50:29.174Z,54.50
2018-09-09T22:52:57.463Z,54.60
2018-09-09T22:55:25.810Z,54.50
2018-09-09T22:57:54.114Z,54.50
2018-09-09T23:00:22.410Z,54.60
2018-09-09T23:02:50.707Z,54.60
2018-09-09T23:05:19.018Z,54.60
2018-09-09T23:07:47.294Z,54.60
2018-09-09T23:10:15.575Z,54.60
2018-09-09T23:12:43.865Z,54.70
2018-09-09T23:15:12.151Z,54.60
2018-09-09T23:17:40.434Z,54.60
2018-09-09T23:20:08.722Z,54.70
2018-09-09T23:22:37.065Z,54.70
2018-09-09T23:25:05.614Z,54.70
2018-09-09T23:27:33.902Z,54.70
2018-09-09T23:30:03.150Z,54.70
2018-09-09T23:32:31.437Z,54.80
2018-09-09T23:34:59.764Z,54.70
2018-09-09T23:37:28.050Z,54.70
2018-09-09T23:39:56.383Z,54.70
2018-09-09T23:42:24.672Z,54.70
2018-09-09T23:44:53.158Z,54.70
2018-09-09T23:47:21.474Z,54.80
2018-09-09T23:49:49.749Z,54.70
2018-09-09T23:52:18.204Z,54.70
2018-09-09T23:54:46.486Z,54.70
2018-09-09T23:57:14.798Z,54.70
